Time;durP1;ratioP1;P1;durP2;ratioP2;P2;SDS_P1;SDS_P2;PMS_P1;PMS_P2;Temp;Humidity;BMP_temperature;BMP_pressure;BME280_temperature;BME280_humidity;BME280_pressure;Samples;Min_cycle;Max_cycle;Signal;HPM_P1;HPM_P2
2022/06/30 00:02:22;;;;;;;;;;;;;;;;;;5132424;27;1901;-66
2022/06/30 00:04:48;;;;;;;;;;;;;;;;;;5132220;27;816;-65
2022/06/30 00:07:13;;;;;;;;;;;;;;;;;;5131983;27;840;-66
2022/06/30 00:09:40;;;;;;;;;;;;;;;;;;5131275;27;990;-65
2022/06/30 00:12:05;;;;;;;;;;;;;;;;;;5132173;27;840;-65
2022/06/30 00:14:30;;;;;;;;;;;;;;;;;;5132561;27;933;-66
2022/06/30 00:16:56;;;;;;;;;;;;;;;;;;5132101;27;778;-66
2022/06/30 00:19:21;;;;;;;;;;;;;;;;;;5132743;27;964;-66
2022/06/30 00:21:46;;;;;;;;;;;;;;;;;;5132025;27;1897;-66
2022/06/30 00:24:11;;;;;;;;;;;;;;;;;;5132071;27;1002;-66
2022/06/30 00:26:37;;;;;;;;;;;;;;;;;;5132530;27;777;-66
2022/06/30 00:29:02;;;;;;;;;;;;;;;;;;5131520;27;983;-66
2022/06/30 00:31:27;;;;;;;;;;;;;;;;;;5132232;27;929;-66
2022/06/30 00:33:52;;;;;;;;;;;;;;;;;;5131810;27;1309;-66
2022/06/30 00:36:18;;;;;;;;;;;;;;;;;;5130598;27;1165;-66
2022/06/30 00:38:43;;;;;;;;;;;;;;;;;;5131701;27;898;-67
2022/06/30 00:41:10;;;;;;;;;;;;;;;;;;5131832;27;852;-66
2022/06/30 00:43:45;;;;;;;;;;;;;;;;;;5131486;27;1980;-66
2022/06/30 00:46:10;;;;;;;;;;;;;;;;;;5131846;27;828;-66
2022/06/30 00:48:35;;;;;;;;;;;;;;;;;;5131857;27;793;-66
2022/06/30 00:51:02;;;;;;;;;;;;;;;;;;5129454;27;1188;-66
2022/06/30 00:53:27;;;;;;;;;;;;;;;;;;5130535;27;737;-66
2022/06/30 00:55:52;;;;;;;;;;;;;;;;;;5130036;27;1261;-66
2022/06/30 00:58:18;;;;;;;;;;;;;;;;;;5131450;27;883;-66
2022/06/30 01:00:45;;;;;;;;;;;;;;;;;;5130927;27;816;-66
2022/06/30 01:03:10;;;;;;;;;;;;;;;;;;5131589;27;1968;-66
2022/06/30 01:05:36;;;;;;;;;;;;;;;;;;5131255;27;946;-66
2022/06/30 01:08:02;;;;;;;;;;;;;;;;;;5130949;27;1436;-66
2022/06/30 01:13:11;;;;;;;;;;;;;;;;;;5132666;27;595;-66
2022/06/30 01:15:37;;;;;;;;;;;;;;;;;;5131796;28;935;-66
2022/06/30 01:18:02;;;;;;;;;;;;;;;;;;5131728;28;872;-66
2022/06/30 01:20:29;;;;;;;;;;;;;;;;;;5132299;27;774;-65
2022/06/30 01:22:55;;;;;;;;;;;;;;;;;;5131394;27;1897;-66
2022/06/30 01:25:20;;;;;;;;;;;;;;;;;;5130245;28;884;-65
2022/06/30 01:27:45;;;;;;;;;;;;;;;;;;5130932;27;1068;-65
2022/06/30 01:30:11;;;;;;;;;;;;;;;;;;5131444;27;808;-65
2022/06/30 01:32:36;;;;;;;;;;;;;;;;;;5131460;27;794;-65
2022/06/30 01:35:02;;;;;;;;;;;;;;;;;;5129297;28;1047;-65
2022/06/30 01:37:42;;;;;;;;;;;;;;;;;;5112450;28;1322;-66
2022/06/30 01:40:08;;;;;;;;;;;;;;;;;;5131529;27;804;-66
2022/06/30 01:42:33;;;;;;;;;;;;;;;;;;5131625;27;1906;-65
2022/06/30 01:44:58;;;;;;;;;;;;;;;;;;5129424;28;1169;-65
2022/06/30 01:47:23;;;;;;;;;;;;;;;;;;5130921;27;820;-65
2022/06/30 01:49:49;;;;;;;;;;;;;;;;;;5130446;27;891;-66
2022/06/30 01:52:14;;;;;;;;;;;;;;;;;;5130674;27;1198;-66
2022/06/30 01:54:39;;;;;;;;;;;;;;;;;;5129905;28;1147;-66
2022/06/30 01:57:05;;;;;;;;;;;;;;;;;;5097002;28;1368;-67
2022/06/30 01:59:30;;;;;;;;;;;;;;;;;;5111578;28;1581;-66
2022/06/30 02:01:55;;;;;;;;;;;;;;;;;;5111871;27;1897;-66
2022/06/30 02:07:04;;;;;;;;;;;;;;;;;;5114682;28;735;-66
2022/06/30 02:09:29;;;;;;;;;;;;;;;;;;5114396;28;829;-66
2022/06/30 02:12:45;;;;;;;;;;;;;;;;;;5112481;28;1272;-66
2022/06/30 02:14:40;;;;;;;;;;;;;;;;;;5113696;28;1358;-66
2022/06/30 02:17:05;;;;;;;;;;;;;;;;;;5112994;28;820;-66
2022/06/30 02:19:30;;;;;;;;;;;;;;;;;;5112402;28;1201;-66
2022/06/30 02:21:56;;;;;;;;;;;;;;;;;;5113630;28;1947;-66
2022/06/30 02:24:21;;;;;;;;;;;;;;;;;;5113743;28;958;-66
2022/06/30 02:26:46;;;;;;;;;;;;;;;;;;5113173;28;935;-66
2022/06/30 02:29:11;;;;;;;;;;;;;;;;;;5114027;28;979;-66
2022/06/30 02:31:37;;;;;;;;;;;;;;;;;;5113867;28;958;-66
2022/06/30 02:34:02;;;;;;;;;;;;;;;;;;5113087;28;1218;-66
2022/06/30 02:36:27;;;;;;;;;;;;;;;;;;5113466;28;942;-66
2022/06/30 02:38:52;;;;;;;;;;;;;;;;;;5113470;28;973;-66
2022/06/30 02:41:18;;;;;;;;;;;;;;;;;;5113850;28;813;-67
2022/06/30 02:43:43;;;;;;;;;;;;;;;;;;5113949;28;1914;-66
2022/06/30 02:46:08;;;;;;;;;;;;;;;;;;5112870;28;1336;-66
2022/06/30 02:48:34;;;;;;;;;;;;;;;;;;5113838;28;883;-66
2022/06/30 02:50:59;;;;;;;;;;;;;;;;;;5112572;28;833;-66
2022/06/30 02:53:24;;;;;;;;;;;;;;;;;;5113682;28;913;-67
2022/06/30 02:55:49;;;;;;;;;;;;;;;;;;5113429;28;943;-66
2022/06/30 02:58:15;;;;;;;;;;;;;;;;;;5113779;28;990;-66
2022/06/30 03:00:41;;;;;;;;;;;;;;;;;;5113641;28;853;-66
2022/06/30 03:03:06;;;;;;;;;;;;;;;;;;5113908;27;1901;-66
2022/06/30 03:05:31;;;;;;;;;;;;;;;;;;5113195;28;967;-66
2022/06/30 03:07:56;;;;;;;;;;;;;;;;;;5111250;28;888;-65
2022/06/30 03:10:22;;;;;;;;;;;;;;;;;;5112998;28;817;-65
2022/06/30 03:12:47;;;;;;;;;;;;;;;;;;5112495;28;1018;-66
2022/06/30 03:15:12;;;;;;;;;;;;;;;;;;5112351;28;773;-65
2022/06/30 03:17:37;;;;;;;;;;;;;;;;;;5112558;28;924;-65
2022/06/30 03:20:03;;;;;;;;;;;;;;;;;;5112510;28;816;-66
2022/06/30 03:22:28;;;;;;;;;;;;;;;;;;5112435;28;1905;-66
2022/06/30 03:24:53;;;;;;;;;;;;;;;;;;5112295;28;1169;-66
2022/06/30 03:27:19;;;;;;;;;;;;;;;;;;5112308;28;1013;-65
2022/06/30 03:29:44;;;;;;;;;;;;;;;;;;5112029;28;848;-66
2022/06/30 03:32:09;;;;;;;;;;;;;;;;;;5113283;28;844;-66
2022/06/30 03:34:34;;;;;;;;;;;;;;;;;;5112089;28;1131;-67
2022/06/30 03:37:00;;;;;;;;;;;;;;;;;;5112299;28;903;-67
2022/06/30 03:39:25;;;;;;;;;;;;;;;;;;5112229;28;1002;-66
2022/06/30 03:41:50;;;;;;;;;;;;;;;;;;5110510;28;1914;-66
2022/06/30 03:44:15;;;;;;;;;;;;;;;;;;5112787;28;809;-67
2022/06/30 03:46:41;;;;;;;;;;;;;;;;;;5111889;28;816;-67
2022/06/30 03:49:06;;;;;;;;;;;;;;;;;;5112354;28;1108;-67
2022/06/30 03:51:32;;;;;;;;;;;;;;;;;;5112667;28;887;-66
2022/06/30 03:53:57;;;;;;;;;;;;;;;;;;5111887;28;777;-67
2022/06/30 03:56:24;;;;;;;;;;;;;;;;;;5110516;28;842;-66
2022/06/30 03:58:49;;;;;;;;;;;;;;;;;;5110177;28;796;-66
2022/06/30 04:01:14;;;;;;;;;;;;;;;;;;5112569;28;1053;-66
2022/06/30 04:03:39;;;;;;;;;;;;;;;;;;5111171;28;1905;-66
2022/06/30 04:06:05;;;;;;;;;;;;;;;;;;5112102;28;1054;-66
2022/06/30 04:08:30;;;;;;;;;;;;;;;;;;5112178;28;986;-66
2022/06/30 04:10:56;;;;;;;;;;;;;;;;;;5111605;28;1067;-66
2022/06/30 04:13:22;;;;;;;;;;;;;;;;;;5112181;28;768;-66
2022/06/30 04:15:47;;;;;;;;;;;;;;;;;;5111897;28;892;-66
2022/06/30 04:18:12;;;;;;;;;;;;;;;;;;5112038;28;903;-66
2022/06/30 04:20:37;;;;;;;;;;;;;;;;;;5093931;28;1439;-66
2022/06/30 04:23:03;;;;;;;;;;;;;;;;;;5111644;28;1972;-66
2022/06/30 04:25:28;;;;;;;;;;;;;;;;;;5110855;28;746;-66
2022/06/30 04:27:54;;;;;;;;;;;;;;;;;;5112337;28;963;-66
2022/06/30 04:32:37;;;;;;;;;;;;;;;;;;5112350;28;825;-66
2022/06/30 04:33:05;;;;;;;;;;;;;;;;;;5112145;28;763;-67
2022/06/30 04:35:30;;;;;;;;;;;;;;;;;;5110225;28;1460;-67
2022/06/30 04:37:59;;;;;;;;;;;;;;;;;;5111725;28;875;-66
2022/06/30 04:43:09;;;;;;;;;;;;;;;;;;5111207;28;1956;-67
2022/06/30 04:45:34;;;;;;;;;;;;;;;;;;5111763;27;879;-67
2022/06/30 04:48:00;;;;;;;;;;;;;;;;;;5111227;28;872;-66
2022/06/30 04:50:25;;;;;;;;;;;;;;;;;;5111177;28;997;-66
2022/06/30 04:52:50;;;;;;;;;;;;;;;;;;5110698;28;970;-66
2022/06/30 04:55:15;;;;;;;;;;;;;;;;;;5109526;28;856;-66
2022/06/30 04:57:41;;;;;;;;;;;;;;;;;;5110576;28;1194;-66
2022/06/30 05:00:07;;;;;;;;;;;;;;;;;;5109148;28;1226;-66
2022/06/30 05:02:32;;;;;;;;;;;;;;;;;;5110764;28;1886;-66
2022/06/30 05:04:58;;;;;;;;;;;;;;;;;;5110199;28;844;-67
2022/06/30 05:07:23;;;;;;;;;;;;;;;;;;5109431;28;844;-67
2022/06/30 05:09:48;;;;;;;;;;;;;;;;;;5110061;28;749;-67
2022/06/30 05:12:13;;;;;;;;;;;;;;;;;;5109519;28;833;-66
2022/06/30 05:14:39;;;;;;;;;;;;;;;;;;5109465;28;896;-67
2022/06/30 05:17:04;;;;;;;;;;;;;;;;;;5110359;28;888;-66
2022/06/30 05:19:29;;;;;;;;;;;;;;;;;;5109399;28;835;-66
2022/06/30 05:21:55;;;;;;;;;;;;;;;;;;5110060;28;1875;-66
2022/06/30 05:27:04;;;;;;;;;;;;;;;;;;5110511;28;686;-66
2022/06/30 05:29:29;;;;;;;;;;;;;;;;;;5109340;28;932;-66
2022/06/30 05:31:54;;;;;;;;;;;;;;;;;;5094452;28;1166;-66
2022/06/30 05:34:20;;;;;;;;;;;;;;;;;;5115022;28;1252;-66
2022/06/30 05:36:45;;;;;;;;;;;;;;;;;;5114508;28;883;-66
2022/06/30 05:39:11;;;;;;;;;;;;;;;;;;5113969;28;908;-66
2022/06/30 05:41:37;;;;;;;;;;;;;;;;;;5115107;28;844;-66
2022/06/30 05:44:02;;;;;;;;;;;;;;;;;;5114485;28;1921;-66
2022/06/30 05:46:27;;;;;;;;;;;;;;;;;;5114990;28;989;-66
2022/06/30 05:48:53;;;;;;;;;;;;;;;;;;5114016;28;973;-66
2022/06/30 05:51:18;;;;;;;;;;;;;;;;;;5114752;28;809;-67
2022/06/30 05:53:43;;;;;;;;;;;;;;;;;;5113265;28;919;-66
2022/06/30 05:56:08;;;;;;;;;;;;;;;;;;5114036;28;962;-66
2022/06/30 05:58:33;;;;;;;;;;;;;;;;;;5114793;28;883;-66
2022/06/30 06:00:59;;;;;;;;;;;;;;;;;;5113965;28;972;-66
2022/06/30 06:03:24;;;;;;;;;;;;;;;;;;5114435;28;1964;-66
2022/06/30 06:05:49;;;;;;;;;;;;;;;;;;5113624;28;832;-66
2022/06/30 06:08:14;;;;;;;;;;;;;;;;;;5114320;28;907;-67
2022/06/30 06:10:40;;;;;;;;;;;;;;;;;;5113069;28;895;-66
2022/06/30 06:13:06;;;;;;;;;;;;;;;;;;5112623;28;903;-66
2022/06/30 06:15:32;;;;;;;;;;;;;;;;;;5114812;28;832;-66
2022/06/30 06:17:57;;;;;;;;;;;;;;;;;;5114362;28;785;-65
2022/06/30 06:20:22;;;;;;;;;;;;;;;;;;5113246;28;1059;-67
2022/06/30 06:22:47;;;;;;;;;;;;;;;;;;5114162;28;1905;-66
2022/06/30 06:25:13;;;;;;;;;;;;;;;;;;5113598;28;1065;-66
2022/06/30 06:27:38;;;;;;;;;;;;;;;;;;5112953;28;898;-66
2022/06/30 06:30:05;;;;;;;;;;;;;;;;;;5096275;28;1206;-67
2022/06/30 06:32:30;;;;;;;;;;;;;;;;;;5114514;28;839;-67
2022/06/30 06:34:56;;;;;;;;;;;;;;;;;;5111790;28;1316;-66
2022/06/30 06:37:21;;;;;;;;;;;;;;;;;;5113824;28;891;-66
2022/06/30 06:39:46;;;;;;;;;;;;;;;;;;5112547;28;849;-65
2022/06/30 06:42:12;;;;;;;;;;;;;;;;;;5113333;28;1934;-66
2022/06/30 06:44:37;;;;;;;;;;;;;;;;;;5113900;28;891;-66
2022/06/30 06:47:02;;;;;;;;;;;;;;;;;;5111652;28;943;-65
2022/06/30 06:49:27;;;;;;;;;;;;;;;;;;5113361;28;1066;-67
2022/06/30 06:51:53;;;;;;;;;;;;;;;;;;5112505;28;821;-67
2022/06/30 06:54:18;;;;;;;;;;;;;;;;;;5113065;28;1238;-66
2022/06/30 06:56:43;;;;;;;;;;;;;;;;;;5111473;28;1151;-65
2022/06/30 06:59:08;;;;;;;;;;;;;;;;;;5111324;28;1471;-65
2022/06/30 07:01:34;;;;;;;;;;;;;;;;;;5112900;28;1167;-65
2022/06/30 07:03:59;;;;;;;;;;;;;;;;;;5112480;28;1901;-65
2022/06/30 07:06:24;;;;;;;;;;;;;;;;;;5113647;28;828;-65
2022/06/30 07:08:50;;;;;;;;;;;;;;;;;;5112287;28;872;-66
2022/06/30 07:11:15;;;;;;;;;;;;;;;;;;5112479;28;902;-66
2022/06/30 07:13:40;;;;;;;;;;;;;;;;;;5113831;28;938;-67
2022/06/30 07:16:06;;;;;;;;;;;;;;;;;;5113092;28;894;-66
2022/06/30 07:18:31;;;;;;;;;;;;;;;;;;5113585;28;865;-67
2022/06/30 07:20:56;;;;;;;;;;;;;;;;;;5112977;28;962;-67
2022/06/30 07:23:21;;;;;;;;;;;;;;;;;;5113336;28;1902;-67
2022/06/30 07:25:47;;;;;;;;;;;;;;;;;;5112502;28;852;-67
2022/06/30 07:28:12;;;;;;;;;;;;;;;;;;5113412;27;915;-67
2022/06/30 07:30:37;;;;;;;;;;;;;;;;;;5113334;28;868;-67
2022/06/30 07:33:02;;;;;;;;;;;;;;;;;;5111924;28;892;-67
2022/06/30 07:35:28;;;;;;;;;;;;;;;;;;5112850;28;1177;-67
2022/06/30 07:37:53;;;;;;;;;;;;;;;;;;5112774;28;821;-67
2022/06/30 07:40:18;;;;;;;;;;;;;;;;;;5111492;28;947;-67
2022/06/30 07:42:43;;;;;;;;;;;;;;;;;;5112631;28;1905;-67
2022/06/30 07:45:10;;;;;;;;;;;;;;;;;;5111428;28;836;-67
2022/06/30 07:47:36;;;;;;;;;;;;;;;;;;5111971;28;863;-67
2022/06/30 07:50:01;;;;;;;;;;;;;;;;;;5111876;28;859;-66
2022/06/30 07:52:26;;;;;;;;;;;;;;;;;;5112598;28;903;-67
2022/06/30 07:54:52;;;;;;;;;;;;;;;;;;5111311;28;947;-67
2022/06/30 07:57:18;;;;;;;;;;;;;;;;;;5112732;28;903;-67
2022/06/30 07:59:43;;;;;;;;;;;;;;;;;;5112582;28;840;-67
2022/06/30 08:02:08;;;;;;;;;;;;;;;;;;5110968;28;1890;-67
2022/06/30 08:04:34;;;;;;;;;;;;;;;;;;5112886;28;832;-67
2022/06/30 08:07:01;;;;;;;;;;;;;;;;;;5112405;28;894;-67
2022/06/30 08:09:27;;;;;;;;;;;;;;;;;;5113241;28;884;-67
2022/06/30 08:11:53;;;;;;;;;;;;;;;;;;5110839;28;967;-67
2022/06/30 08:14:19;;;;;;;;;;;;;;;;;;5112876;28;798;-67
2022/06/30 08:16:44;;;;;;;;;;;;;;;;;;5112450;28;875;-67
2022/06/30 08:19:09;;;;;;;;;;;;;;;;;;5112223;28;998;-67
2022/06/30 08:21:34;;;;;;;;;;;;;;;;;;5112231;28;937;-67
2022/06/30 08:23:59;;;;;;;;;;;;;;;;;;5111507;28;1909;-67
2022/06/30 08:26:25;;;;;;;;;;;;;;;;;;5111949;28;983;-67
2022/06/30 08:28:50;;;;;;;;;;;;;;;;;;5111205;28;1063;-67
2022/06/30 08:31:16;;;;;;;;;;;;;;;;;;5111372;28;911;-67
2022/06/30 08:33:41;;;;;;;;;;;;;;;;;;5111425;28;871;-67
2022/06/30 08:36:08;;;;;;;;;;;;;;;;;;5111039;28;1242;-67
2022/06/30 08:38:33;;;;;;;;;;;;;;;;;;5111708;28;915;-67
2022/06/30 08:43:43;;;;;;;;;;;;;;;;;;5111505;28;1967;-67
2022/06/30 08:46:10;;;;;;;;;;;;;;;;;;5110960;28;868;-67
2022/06/30 08:48:35;;;;;;;;;;;;;;;;;;5111199;28;836;-67
2022/06/30 08:51:05;;;;;;;;;;;;;;;;;;5111033;28;1006;-67
2022/06/30 08:53:31;;;;;;;;;;;;;;;;;;5111725;28;848;-67
2022/06/30 08:55:56;;;;;;;;;;;;;;;;;;5110661;28;778;-67
2022/06/30 08:58:22;;;;;;;;;;;;;;;;;;5111346;28;896;-67
2022/06/30 09:00:51;;;;;;;;;;;;;;;;;;5109678;28;848;-67
2022/06/30 09:03:17;;;;;;;;;;;;;;;;;;5110655;28;1910;-67
2022/06/30 09:05:44;;;;;;;;;;;;;;;;;;5111320;28;871;-65
2022/06/30 09:08:09;;;;;;;;;;;;;;;;;;5110669;28;911;-67
2022/06/30 09:10:35;;;;;;;;;;;;;;;;;;5111091;28;789;-67
2022/06/30 09:13:03;;;;;;;;;;;;;;;;;;5110347;28;1003;-66
2022/06/30 09:15:30;;;;;;;;;;;;;;;;;;5111697;28;906;-66
2022/06/30 09:17:55;;;;;;;;;;;;;;;;;;5110466;28;876;-65
2022/06/30 09:20:31;;;;;;;;;;;;;;;;;;5111253;28;1245;-65
2022/06/30 09:22:56;;;;;;;;;;;;;;;;;;5110836;28;1905;-65
2022/06/30 09:25:30;;;;;;;;;;;;;;;;;;5111202;28;883;-66
2022/06/30 09:27:55;;;;;;;;;;;;;;;;;;5110610;28;933;-65
2022/06/30 09:30:22;;;;;;;;;;;;;;;;;;5111552;28;955;-66
2022/06/30 09:32:49;;;;;;;;;;;;;;;;;;5111307;28;863;-66
2022/06/30 09:35:15;;;;;;;;;;;;;;;;;;5110971;28;1187;-66
2022/06/30 09:37:41;;;;;;;;;;;;;;;;;;5110103;28;1213;-65
2022/06/30 09:40:07;;;;;;;;;;;;;;;;;;5092733;28;1119;-65
2022/06/30 09:42:37;;;;;;;;;;;;;;;;;;5111114;28;1910;-66
2022/06/30 09:45:03;;;;;;;;;;;;;;;;;;5110772;28;860;-67
2022/06/30 09:47:28;;;;;;;;;;;;;;;;;;5109967;28;1136;-67
2022/06/30 09:49:54;;;;;;;;;;;;;;;;;;5110822;28;1057;-66
2022/06/30 09:52:23;;;;;;;;;;;;;;;;;;5111180;28;836;-66
2022/06/30 09:54:56;;;;;;;;;;;;;;;;;;5111026;28;888;-66
2022/06/30 09:57:22;;;;;;;;;;;;;;;;;;5111224;28;880;-66
2022/06/30 09:59:57;;;;;;;;;;;;;;;;;;5111484;28;824;-64
2022/06/30 10:02:26;;;;;;;;;;;;;;;;;;5111528;28;1893;-66
2022/06/30 10:04:54;;;;;;;;;;;;;;;;;;5111582;28;990;-68
2022/06/30 10:07:20;;;;;;;;;;;;;;;;;;5110894;28;854;-65
2022/06/30 10:09:45;;;;;;;;;;;;;;;;;;5111046;28;844;-66
2022/06/30 10:12:11;;;;;;;;;;;;;;;;;;5111510;28;868;-66
2022/06/30 10:14:37;;;;;;;;;;;;;;;;;;5111392;28;863;-66
2022/06/30 10:17:05;;;;;;;;;;;;;;;;;;5111541;28;809;-66
2022/06/30 10:19:31;;;;;;;;;;;;;;;;;;5112585;28;1392;-66
2022/06/30 10:21:56;;;;;;;;;;;;;;;;;;5113685;28;1897;-65
2022/06/30 10:24:22;;;;;;;;;;;;;;;;;;5113708;27;1262;-67
2022/06/30 10:29:32;;;;;;;;;;;;;;;;;;5113995;28;1055;-67
2022/06/30 10:32:07;;;;;;;;;;;;;;;;;;5113651;28;841;-66
2022/06/30 10:34:51;;;;;;;;;;;;;;;;;;5113436;28;1290;-66
2022/06/30 10:37:23;;;;;;;;;;;;;;;;;;5113430;28;808;-66
2022/06/30 10:39:58;;;;;;;;;;;;;;;;;;5113730;28;1119;-66
2022/06/30 10:42:52;;;;;;;;;;;;;;;;;;5113710;28;1979;-66
2022/06/30 10:45:44;;;;;;;;;;;;;;;;;;5103452;28;1226;-66
2022/06/30 10:48:09;;;;;;;;;;;;;;;;;;5096383;28;1282;-66
2022/06/30 10:50:39;;;;;;;;;;;;;;;;;;5113637;28;995;-67
2022/06/30 10:53:05;;;;;;;;;;;;;;;;;;5113139;28;919;-67
2022/06/30 10:55:43;;;;;;;;;;;;;;;;;;5113945;28;1014;-66
2022/06/30 10:58:09;;;;;;;;;;;;;;;;;;5113619;28;855;-67
2022/06/30 11:00:44;;;;;;;;;;;;;;;;;;5113839;28;792;-67
2022/06/30 11:03:29;;;;;;;;;;;;;;;;;;5111931;28;1885;-67
2022/06/30 11:05:55;;;;;;;;;;;;;;;;;;5113360;28;1514;-67
2022/06/30 11:08:36;;;;;;;;;;;;;;;;;;5113105;27;1529;-67
2022/06/30 11:11:19;;;;;;;;;;;;;;;;;;5113373;28;828;-67
2022/06/30 11:13:45;;;;;;;;;;;;;;;;;;5113493;28;1293;-67
2022/06/30 11:16:13;;;;;;;;;;;;;;;;;;5113140;28;994;-67
2022/06/30 11:18:38;;;;;;;;;;;;;;;;;;5113869;28;919;-67
2022/06/30 11:21:03;;;;;;;;;;;;;;;;;;5113193;28;951;-67
2022/06/30 11:23:35;;;;;;;;;;;;;;;;;;5112727;28;1901;-67
2022/06/30 11:28:45;;;;;;;;;;;;;;;;;;5112177;28;877;-67
2022/06/30 11:31:25;;;;;;;;;;;;;;;;;;5113972;28;824;-67
2022/06/30 11:33:51;;;;;;;;;;;;;;;;;;5112044;28;1550;-66
2022/06/30 11:36:17;;;;;;;;;;;;;;;;;;5113630;28;1392;-67
2022/06/30 11:38:42;;;;;;;;;;;;;;;;;;5113528;28;986;-67
2022/06/30 11:43:52;;;;;;;;;;;;;;;;;;5113300;28;1977;-67
2022/06/30 11:46:17;;;;;;;;;;;;;;;;;;5111956;28;1210;-67
2022/06/30 11:48:42;;;;;;;;;;;;;;;;;;5113425;28;777;-67
2022/06/30 11:51:11;;;;;;;;;;;;;;;;;;5112852;28;884;-67
2022/06/30 11:53:37;;;;;;;;;;;;;;;;;;5111127;28;923;-67
2022/06/30 11:56:03;;;;;;;;;;;;;;;;;;5112470;28;990;-67
2022/06/30 11:58:29;;;;;;;;;;;;;;;;;;5110710;28;1322;-67
2022/06/30 12:00:54;;;;;;;;;;;;;;;;;;5111959;28;859;-67
2022/06/30 12:03:19;;;;;;;;;;;;;;;;;;5110911;28;1912;-66
2022/06/30 12:05:44;;;;;;;;;;;;;;;;;;5112416;28;856;-66
2022/06/30 12:08:13;;;;;;;;;;;;;;;;;;5112632;28;879;-66
2022/06/30 12:10:40;;;;;;;;;;;;;;;;;;5111974;28;844;-66
2022/06/30 12:13:05;;;;;;;;;;;;;;;;;;5111422;28;777;-66
2022/06/30 12:15:31;;;;;;;;;;;;;;;;;;5111643;27;884;-66
2022/06/30 12:17:56;;;;;;;;;;;;;;;;;;5111788;28;1010;-66
2022/06/30 12:20:22;;;;;;;;;;;;;;;;;;5111866;28;884;-66
2022/06/30 12:22:49;;;;;;;;;;;;;;;;;;5112150;28;1955;-66
2022/06/30 12:25:14;;;;;;;;;;;;;;;;;;5111889;28;769;-66
2022/06/30 12:27:44;;;;;;;;;;;;;;;;;;5110733;28;1921;-66
2022/06/30 12:30:13;;;;;;;;;;;;;;;;;;5111497;28;975;-66
2022/06/30 12:32:39;;;;;;;;;;;;;;;;;;5111939;28;895;-66
2022/06/30 12:35:09;;;;;;;;;;;;;;;;;;5109636;28;1467;-66
2022/06/30 12:37:36;;;;;;;;;;;;;;;;;;5111404;28;828;-66
2022/06/30 12:40:03;;;;;;;;;;;;;;;;;;5110675;28;813;-66
2022/06/30 12:42:45;;;;;;;;;;;;;;;;;;5110524;28;1979;-66
2022/06/30 12:45:29;;;;;;;;;;;;;;;;;;5110801;28;951;-66
2022/06/30 12:47:54;;;;;;;;;;;;;;;;;;5109674;28;1108;-67
2022/06/30 12:50:21;;;;;;;;;;;;;;;;;;5111640;28;883;-66
2022/06/30 12:52:46;;;;;;;;;;;;;;;;;;5111062;28;876;-66
2022/06/30 12:55:11;;;;;;;;;;;;;;;;;;5111412;28;824;-66
2022/06/30 12:57:38;;;;;;;;;;;;;;;;;;5111709;28;813;-67
2022/06/30 13:00:03;;;;;;;;;;;;;;;;;;5111804;28;1034;-67
2022/06/30 13:02:36;;;;;;;;;;;;;;;;;;5109851;28;1951;-67
2022/06/30 13:05:02;;;;;;;;;;;;;;;;;;5111610;28;876;-66
2022/06/30 13:07:27;;;;;;;;;;;;;;;;;;5111566;28;831;-67
2022/06/30 13:09:52;;;;;;;;;;;;;;;;;;5111097;28;938;-67
2022/06/30 13:12:18;;;;;;;;;;;;;;;;;;5110615;28;867;-67
2022/06/30 13:14:43;;;;;;;;;;;;;;;;;;5111995;28;879;-66
2022/06/30 13:17:09;;;;;;;;;;;;;;;;;;5110343;28;2130;-66
2022/06/30 13:19:34;;;;;;;;;;;;;;;;;;5111723;28;895;-66
2022/06/30 13:22:00;;;;;;;;;;;;;;;;;;5111555;28;1956;-66
2022/06/30 13:24:25;;;;;;;;;;;;;;;;;;5112295;28;851;-66
2022/06/30 13:26:51;;;;;;;;;;;;;;;;;;5111524;28;840;-66
2022/06/30 13:29:16;;;;;;;;;;;;;;;;;;5111724;28;1018;-66
2022/06/30 13:31:42;;;;;;;;;;;;;;;;;;5111195;28;907;-66
2022/06/30 13:34:08;;;;;;;;;;;;;;;;;;5110990;28;1008;-66
2022/06/30 13:36:34;;;;;;;;;;;;;;;;;;5111053;28;908;-66
2022/06/30 13:38:59;;;;;;;;;;;;;;;;;;5110867;28;824;-66
2022/06/30 13:41:25;;;;;;;;;;;;;;;;;;5111232;28;911;-67
2022/06/30 13:43:51;;;;;;;;;;;;;;;;;;5109144;28;1962;-66
2022/06/30 13:46:16;;;;;;;;;;;;;;;;;;5111190;28;958;-66
2022/06/30 13:48:41;;;;;;;;;;;;;;;;;;5109815;28;871;-66
2022/06/30 13:51:07;;;;;;;;;;;;;;;;;;5109496;28;883;-66
2022/06/30 13:53:32;;;;;;;;;;;;;;;;;;5114465;28;876;-66
2022/06/30 13:55:57;;;;;;;;;;;;;;;;;;5113136;28;2198;-66
2022/06/30 13:58:24;;;;;;;;;;;;;;;;;;5115126;28;868;-66
2022/06/30 14:00:50;;;;;;;;;;;;;;;;;;5112740;28;1717;-66
2022/06/30 14:03:15;;;;;;;;;;;;;;;;;;5114876;28;1898;-66
2022/06/30 14:05:40;;;;;;;;;;;;;;;;;;5114513;28;832;-66
2022/06/30 14:08:05;;;;;;;;;;;;;;;;;;5112827;28;1131;-66
2022/06/30 14:10:31;;;;;;;;;;;;;;;;;;5114428;28;843;-66
2022/06/30 14:12:56;;;;;;;;;;;;;;;;;;5113761;28;1057;-66
2022/06/30 14:15:22;;;;;;;;;;;;;;;;;;5112850;28;959;-67
2022/06/30 14:17:47;;;;;;;;;;;;;;;;;;5114145;28;833;-66
2022/06/30 14:20:12;;;;;;;;;;;;;;;;;;5114146;28;916;-66
2022/06/30 14:22:38;;;;;;;;;;;;;;;;;;5112831;28;1956;-66
2022/06/30 14:25:04;;;;;;;;;;;;;;;;;;5113910;28;952;-67
2022/06/30 14:27:30;;;;;;;;;;;;;;;;;;5114465;28;938;-67
2022/06/30 14:29:55;;;;;;;;;;;;;;;;;;5114141;28;1151;-67
2022/06/30 14:32:22;;;;;;;;;;;;;;;;;;5115029;28;888;-67
2022/06/30 14:34:47;;;;;;;;;;;;;;;;;;5114605;28;1207;-67
2022/06/30 14:37:12;;;;;;;;;;;;;;;;;;5114291;28;809;-70
2022/06/30 14:39:38;;;;;;;;;;;;;;;;;;5113515;28;993;-69
2022/06/30 14:44:47;;;;;;;;;;;;;;;;;;5114276;28;906;-69
2022/06/30 14:47:12;;;;;;;;;;;;;;;;;;5114344;28;844;-69
2022/06/30 14:49:38;;;;;;;;;;;;;;;;;;5114533;28;942;-69
2022/06/30 14:52:04;;;;;;;;;;;;;;;;;;5112299;28;875;-69
2022/06/30 14:54:29;;;;;;;;;;;;;;;;;;5115107;28;831;-70
2022/06/30 14:56:54;;;;;;;;;;;;;;;;;;5114136;28;955;-68
2022/06/30 14:59:21;;;;;;;;;;;;;;;;;;5114781;28;888;-68
2022/06/30 15:01:46;;;;;;;;;;;;;;;;;;5114977;28;864;-70
2022/06/30 15:04:11;;;;;;;;;;;;;;;;;;5112992;28;1897;-70
2022/06/30 15:06:37;;;;;;;;;;;;;;;;;;5114866;28;777;-69
2022/06/30 15:09:02;;;;;;;;;;;;;;;;;;5114143;28;856;-70
2022/06/30 15:11:28;;;;;;;;;;;;;;;;;;5114947;28;935;-70
2022/06/30 15:13:54;;;;;;;;;;;;;;;;;;5114481;28;848;-71
2022/06/30 15:16:19;;;;;;;;;;;;;;;;;;5115198;28;773;-70
2022/06/30 15:18:44;;;;;;;;;;;;;;;;;;5114871;27;863;-69
2022/06/30 15:24:10;;;;;;;;;;;;;;;;;;5113983;28;1897;-72
2022/06/30 15:26:37;;;;;;;;;;;;;;;;;;5114664;28;821;-70
2022/06/30 15:29:06;;;;;;;;;;;;;;;;;;5113882;28;881;-70
2022/06/30 15:31:35;;;;;;;;;;;;;;;;;;5112977;28;1352;-70
2022/06/30 15:34:01;;;;;;;;;;;;;;;;;;5113580;28;1237;-70
2022/06/30 15:36:29;;;;;;;;;;;;;;;;;;5112421;28;1374;-70
2022/06/30 15:38:55;;;;;;;;;;;;;;;;;;5112564;28;828;-70
2022/06/30 15:41:20;;;;;;;;;;;;;;;;;;5111552;28;3156;-70
2022/06/30 15:43:45;;;;;;;;;;;;;;;;;;5112140;28;1970;-71
2022/06/30 15:46:12;;;;;;;;;;;;;;;;;;5112816;28;808;-71
2022/06/30 15:48:38;;;;;;;;;;;;;;;;;;5095005;28;1224;-70
2022/06/30 15:51:03;;;;;;;;;;;;;;;;;;5112264;28;919;-71
2022/06/30 15:53:28;;;;;;;;;;;;;;;;;;5112475;28;879;-70
2022/06/30 15:55:53;;;;;;;;;;;;;;;;;;5111074;28;911;-70
2022/06/30 15:58:19;;;;;;;;;;;;;;;;;;5112470;28;836;-70
2022/06/30 16:00:44;;;;;;;;;;;;;;;;;;5110049;28;809;-70
2022/06/30 16:03:09;;;;;;;;;;;;;;;;;;5111586;28;1964;-70
2022/06/30 16:05:34;;;;;;;;;;;;;;;;;;5110769;28;955;-70
2022/06/30 16:07:59;;;;;;;;;;;;;;;;;;5109926;28;955;-70
2022/06/30 16:10:25;;;;;;;;;;;;;;;;;;5111663;28;892;-70
2022/06/30 16:12:50;;;;;;;;;;;;;;;;;;5112177;28;950;-70
2022/06/30 16:15:16;;;;;;;;;;;;;;;;;;5110641;28;994;-70
2022/06/30 16:17:41;;;;;;;;;;;;;;;;;;5112164;27;794;-70
2022/06/30 16:20:07;;;;;;;;;;;;;;;;;;5109920;28;1350;-70
2022/06/30 16:22:35;;;;;;;;;;;;;;;;;;5110092;28;1910;-70
2022/06/30 16:25:01;;;;;;;;;;;;;;;;;;5111276;28;848;-70
2022/06/30 16:27:26;;;;;;;;;;;;;;;;;;5111646;28;900;-70
2022/06/30 16:29:52;;;;;;;;;;;;;;;;;;5111664;28;868;-70
2022/06/30 16:32:17;;;;;;;;;;;;;;;;;;5109636;28;888;-70
2022/06/30 16:34:42;;;;;;;;;;;;;;;;;;5111509;28;1079;-70
2022/06/30 16:37:08;;;;;;;;;;;;;;;;;;5110980;28;919;-70
2022/06/30 16:39:33;;;;;;;;;;;;;;;;;;5111900;28;828;-70
2022/06/30 16:42:07;;;;;;;;;;;;;;;;;;5111062;28;824;-70
2022/06/30 16:44:33;;;;;;;;;;;;;;;;;;5113080;28;840;-70
2022/06/30 16:46:58;;;;;;;;;;;;;;;;;;5111765;28;777;-70
2022/06/30 16:49:24;;;;;;;;;;;;;;;;;;5110759;28;1205;-70
2022/06/30 16:51:50;;;;;;;;;;;;;;;;;;5110541;28;922;-70
2022/06/30 16:54:15;;;;;;;;;;;;;;;;;;5111776;28;907;-69
2022/06/30 16:56:40;;;;;;;;;;;;;;;;;;5110473;28;899;-69
2022/06/30 16:59:08;;;;;;;;;;;;;;;;;;5111106;27;765;-69
2022/06/30 17:01:33;;;;;;;;;;;;;;;;;;5112151;28;761;-70
2022/06/30 17:03:58;;;;;;;;;;;;;;;;;;5109534;28;1971;-69
2022/06/30 17:06:23;;;;;;;;;;;;;;;;;;5111657;28;903;-69
2022/06/30 17:08:49;;;;;;;;;;;;;;;;;;5111809;28;808;-69
2022/06/30 17:11:14;;;;;;;;;;;;;;;;;;5109134;28;896;-69
2022/06/30 17:13:40;;;;;;;;;;;;;;;;;;5110007;28;891;-69
2022/06/30 17:16:05;;;;;;;;;;;;;;;;;;5110508;28;1408;-69
2022/06/30 17:18:30;;;;;;;;;;;;;;;;;;5110783;28;883;-68
2022/06/30 17:20:56;;;;;;;;;;;;;;;;;;5110352;28;1153;-69
2022/06/30 17:23:21;;;;;;;;;;;;;;;;;;5109141;28;1902;-69
2022/06/30 17:25:46;;;;;;;;;;;;;;;;;;5110937;28;931;-69
2022/06/30 17:28:12;;;;;;;;;;;;;;;;;;5113573;28;970;-69
2022/06/30 17:30:37;;;;;;;;;;;;;;;;;;5115530;28;841;-69
2022/06/30 17:33:02;;;;;;;;;;;;;;;;;;5114442;28;832;-69
2022/06/30 17:35:27;;;;;;;;;;;;;;;;;;5114562;28;1298;-69
2022/06/30 17:37:54;;;;;;;;;;;;;;;;;;5114698;28;955;-68